»·PEaware :: UAL224 KSAC-KRNO

UAL224 :: KSAC-KRNO

FLIGHT INFORMATION

Flight Status: Arrived
Operator:
United Airlines
More flights by this operator :: More flights under this callsign
Pilot: Anonymous 12234 (12234)
Aircraft: BOEING 727-100
(B721)
More flights by this aircraft type
Origin: KSAC Sacramento Executive
United States
Destination: KRNO Reno/Tahoe Intl
United States
More flights between these airports :: More routes between these airports
Route: SAC SIER3
File this flight plan on PilotEdge
Remarks:
Altitude:
(Current/Filed)
17,000ft
Speed:
(Current/Filed)
410kts
Departed: 10-Aug-18 06:51 PM
Arrived: 10-Aug-18 07:28 PM
Distance/Time
Traveled:
100nm/0:36
Distance/Time
To Go:
Arrived

Flight Plot

Page will automatically refresh every two minutes.

Flight plan parsing failed; only flown route is shown


Map Options




Map Legend


Flown Route
Filed Route
Departure Airport
Arrival Airport
Navaid (VOR, NDB)
Fix

Horizontal Profiles

Position Reports

Time Latitude Longitude Heading Altitude Ground
Speed
10-Aug-18 18:24 38.512446 -121.498254 303 32ft 0kts
10-Aug-18 18:25 38.512446 -121.498254 303 32ft 0kts
10-Aug-18 18:26 38.512446 -121.498254 303 32ft 0kts
10-Aug-18 18:27 38.512446 -121.498254 303 32ft 0kts
10-Aug-18 18:28 38.512446 -121.498254 303 32ft 0kts
10-Aug-18 18:29 38.512446 -121.498254 303 32ft 0kts
10-Aug-18 18:30 38.512446 -121.498254 303 32ft 0kts
10-Aug-18 18:31 38.512446 -121.498254 303 32ft 0kts
10-Aug-18 18:32 38.512446 -121.498254 303 32ft 0kts
10-Aug-18 18:33 38.512446 -121.498254 303 32ft 0kts
10-Aug-18 18:34 38.512446 -121.498254 303 32ft 0kts
10-Aug-18 18:35 38.512446 -121.498254 303 32ft 0kts
10-Aug-18 18:36 38.512446 -121.498254 303 32ft 0kts
10-Aug-18 18:37 38.512446 -121.498254 303 32ft 0kts
10-Aug-18 18:38 38.512446 -121.498254 303 32ft 0kts
10-Aug-18 18:39 38.512446 -121.498254 303 32ft 0kts
10-Aug-18 18:40 38.512446 -121.498253 303 32ft 0kts
10-Aug-18 18:41 38.512288 -121.497957 303 32ft 2kts
10-Aug-18 18:42 38.512182 -121.497404 241 32ft 0kts
10-Aug-18 18:43 38.511739 -121.497781 188 32ft 0kts
10-Aug-18 18:44 38.511738 -121.497781 188 32ft 0kts
10-Aug-18 18:45 38.511738 -121.497781 188 32ft 0kts
10-Aug-18 18:46 38.511738 -121.497781 188 32ft 0kts
10-Aug-18 18:47 38.511738 -121.497781 188 32ft 0kts
10-Aug-18 18:48 38.511640 -121.497099 39 32ft 10kts
10-Aug-18 18:49 38.517098 -121.492482 35 32ft 26kts
10-Aug-18 18:50 38.519380 -121.490405 84 31ft 0kts
10-Aug-18 18:51 38.519380 -121.490404 83 31ft 0kts
10-Aug-18 18:52 38.517190 -121.490826 211 32ft 60kts
10-Aug-18 18:53 38.485892 -121.520846 217 1859ft 195kts
10-Aug-18 18:54 38.440252 -121.567820 208 2015ft 214kts
10-Aug-18 18:55 38.403017 -121.520454 66 5506ft 290kts
10-Aug-18 18:56 38.474435 -121.481360 15 10276ft 300kts
10-Aug-18 18:57 38.551532 -121.433003 44 12727ft 364kts
10-Aug-18 18:58 38.614953 -121.336502 49 16125ft 379kts
10-Aug-18 18:59 38.682691 -121.245245 47 16989ft 404kts
10-Aug-18 19:00 38.760257 -121.144193 46 17031ft 411kts
10-Aug-18 19:01 38.838752 -121.042456 46 17094ft 404kts
10-Aug-18 19:02 38.916857 -120.941034 46 17094ft 401kts
10-Aug-18 19:03 38.994599 -120.839631 45 17187ft 409kts
10-Aug-18 19:04 39.075880 -120.733375 44 17334ft 424kts
10-Aug-18 19:05 39.149678 -120.637347 44 17363ft 418kts
10-Aug-18 19:06 39.229686 -120.532260 44 17363ft 413kts
10-Aug-18 19:07 39.308739 -120.427864 44 17368ft 409kts
10-Aug-18 19:08 39.382786 -120.329416 45 17377ft 406kts
10-Aug-18 19:09 39.461367 -120.229893 43 17380ft 403kts
10-Aug-18 19:10 39.537997 -120.133677 43 17099ft 409kts
10-Aug-18 19:11 39.618618 -120.032316 43 17045ft 408kts
10-Aug-18 19:12 39.699021 -119.931087 43 17035ft 407kts
10-Aug-18 19:13 39.779854 -119.829176 43 17036ft 406kts
10-Aug-18 19:14 39.860604 -119.727270 43 17036ft 405kts
10-Aug-18 19:15 39.935358 -119.623653 65 15597ft 389kts
10-Aug-18 19:16 39.911712 -119.499945 145 13435ft 374kts
10-Aug-18 19:17 39.815184 -119.492177 192 11349ft 357kts
10-Aug-18 19:18 39.722072 -119.516954 193 10225ft 328kts
10-Aug-18 19:19 39.638807 -119.540748 194 9401ft 302kts
10-Aug-18 19:20 39.564478 -119.571015 211 9059ft 266kts
10-Aug-18 19:21 39.506480 -119.621638 216 8695ft 254kts
10-Aug-18 19:22 39.447875 -119.664888 204 8580ft 242kts
10-Aug-18 19:23 39.385505 -119.690826 196 8610ft 231kts
10-Aug-18 19:24 39.331587 -119.723822 248 8022ft 212kts
10-Aug-18 19:25 39.361345 -119.769325 354 7505ft 210kts
10-Aug-18 19:26 39.416828 -119.769282 357 6280ft 167kts
10-Aug-18 19:27 39.456680 -119.769261 357 5115ft 134kts
10-Aug-18 19:28 39.493587 -119.769267 357 4421ft 113kts
10-Aug-18 19:29 39.503524 -119.770452 305 4420ft 10kts
10-Aug-18 19:30 39.505590 -119.771514 0 4420ft 3kts
10-Aug-18 19:31 39.506088 -119.772671 339 4420ft 6kts
10-Aug-18 19:32 39.506532 -119.772800 348 4420ft 0kts
10-Aug-18 19:33 39.506532 -119.772800 348 4420ft 0kts
10-Aug-18 19:34 39.506532 -119.772800 348 4420ft 0kts
10-Aug-18 19:35 39.506532 -119.772800 348 4420ft 0kts
10-Aug-18 19:36 39.506532 -119.772800 348 4420ft 0kts
10-Aug-18 19:37 39.506532 -119.772800 348 4420ft 0kts
10-Aug-18 19:38 39.506532 -119.772800 348 4420ft 0kts
10-Aug-18 19:39 39.506532 -119.772800 348 4420ft 0kts
10-Aug-18 19:40 39.506532 -119.772800 348 4420ft 0kts

Navigation Log

Ident Type
Flight plan parsing failed, navigation log unavailable